sensor_id;sensor_type;location;lat;lon;timestamp;P1;durP1;ratioP1;P2;durP2;ratioP2
39098;SDS011;24844;52.380;7.018;2023-07-31T00:00:47;3.80;;;2.55;;
39098;SDS011;24844;52.380;7.018;2023-07-31T00:03:13;3.33;;;2.17;;
39098;SDS011;24844;52.380;7.018;2023-07-31T00:05:39;2.90;;;2.20;;
39098;SDS011;24844;52.380;7.018;2023-07-31T00:08:04;3.00;;;2.45;;
39098;SDS011;24844;52.380;7.018;2023-07-31T00:10:30;3.72;;;2.35;;
39098;SDS011;24844;52.380;7.018;2023-07-31T00:12:55;3.60;;;2.33;;
39098;SDS011;24844;52.380;7.018;2023-07-31T00:15:21;3.17;;;2.13;;
39098;SDS011;24844;52.380;7.018;2023-07-31T00:17:47;2.75;;;2.38;;
39098;SDS011;24844;52.380;7.018;2023-07-31T00:20:12;2.40;;;2.20;;
39098;SDS011;24844;52.380;7.018;2023-07-31T00:22:38;2.47;;;2.03;;
39098;SDS011;24844;52.380;7.018;2023-07-31T00:25:04;2.92;;;1.83;;
39098;SDS011;24844;52.380;7.018;2023-07-31T00:27:31;2.78;;;2.20;;
39098;SDS011;24844;52.380;7.018;2023-07-31T00:29:57;3.65;;;2.30;;
39098;SDS011;24844;52.380;7.018;2023-07-31T00:32:23;3.55;;;2.33;;
39098;SDS011;24844;52.380;7.018;2023-07-31T00:34:48;3.58;;;2.47;;
39098;SDS011;24844;52.380;7.018;2023-07-31T00:37:14;3.22;;;2.05;;
39098;SDS011;24844;52.380;7.018;2023-07-31T00:39:40;2.45;;;2.08;;
39098;SDS011;24844;52.380;7.018;2023-07-31T00:42:06;3.88;;;2.45;;
39098;SDS011;24844;52.380;7.018;2023-07-31T00:44:32;3.05;;;2.20;;
39098;SDS011;24844;52.380;7.018;2023-07-31T00:46:58;2.70;;;2.13;;
39098;SDS011;24844;52.380;7.018;2023-07-31T00:49:24;3.85;;;2.20;;
39098;SDS011;24844;52.380;7.018;2023-07-31T00:51:51;3.28;;;2.72;;
39098;SDS011;24844;52.380;7.018;2023-07-31T00:54:17;2.95;;;2.17;;
39098;SDS011;24844;52.380;7.018;2023-07-31T00:56:44;2.88;;;2.38;;
39098;SDS011;24844;52.380;7.018;2023-07-31T00:59:11;3.53;;;2.38;;
39098;SDS011;24844;52.380;7.018;2023-07-31T01:01:37;2.53;;;2.20;;
39098;SDS011;24844;52.380;7.018;2023-07-31T01:04:03;5.25;;;2.45;;
39098;SDS011;24844;52.380;7.018;2023-07-31T01:09:04;2.75;;;2.50;;
39098;SDS011;24844;52.380;7.018;2023-07-31T01:11:33;3.05;;;2.00;;
39098;SDS011;24844;52.380;7.018;2023-07-31T01:14:06;2.78;;;2.22;;
39098;SDS011;24844;52.380;7.018;2023-07-31T01:16:36;2.25;;;2.05;;
39098;SDS011;24844;52.380;7.018;2023-07-31T01:19:01;5.22;;;2.47;;
39098;SDS011;24844;52.380;7.018;2023-07-31T01:21:39;2.45;;;2.20;;
39098;SDS011;24844;52.380;7.018;2023-07-31T01:27:23;2.58;;;1.90;;
39098;SDS011;24844;52.380;7.018;2023-07-31T01:32:24;2.03;;;1.60;;
39098;SDS011;24844;52.380;7.018;2023-07-31T01:34:53;3.65;;;1.50;;
39098;SDS011;24844;52.380;7.018;2023-07-31T01:37:19;1.42;;;1.33;;
39098;SDS011;24844;52.380;7.018;2023-07-31T01:39:45;1.50;;;1.40;;
39098;SDS011;24844;52.380;7.018;2023-07-31T01:42:11;2.45;;;1.45;;
39098;SDS011;24844;52.380;7.018;2023-07-31T01:44:36;2.60;;;1.38;;
39098;SDS011;24844;52.380;7.018;2023-07-31T01:47:02;3.60;;;1.55;;
39098;SDS011;24844;52.380;7.018;2023-07-31T01:49:28;1.70;;;1.60;;
39098;SDS011;24844;52.380;7.018;2023-07-31T01:51:53;1.33;;;1.20;;
39098;SDS011;24844;52.380;7.018;2023-07-31T01:54:19;1.77;;;1.38;;
39098;SDS011;24844;52.380;7.018;2023-07-31T01:56:44;2.13;;;1.20;;
39098;SDS011;24844;52.380;7.018;2023-07-31T01:59:10;1.40;;;1.20;;
39098;SDS011;24844;52.380;7.018;2023-07-31T02:01:36;1.25;;;1.15;;
39098;SDS011;24844;52.380;7.018;2023-07-31T02:04:01;1.30;;;1.08;;
39098;SDS011;24844;52.380;7.018;2023-07-31T02:06:27;1.83;;;1.02;;
39098;SDS011;24844;52.380;7.018;2023-07-31T02:08:53;1.40;;;0.98;;
39098;SDS011;24844;52.380;7.018;2023-07-31T02:11:18;1.27;;;0.90;;
39098;SDS011;24844;52.380;7.018;2023-07-31T02:13:44;1.02;;;0.85;;
39098;SDS011;24844;52.380;7.018;2023-07-31T02:16:10;0.95;;;0.85;;
39098;SDS011;24844;52.380;7.018;2023-07-31T02:18:35;0.70;;;0.70;;
39098;SDS011;24844;52.380;7.018;2023-07-31T02:21:01;0.90;;;0.57;;
39098;SDS011;24844;52.380;7.018;2023-07-31T02:23:27;0.60;;;0.60;;
39098;SDS011;24844;52.380;7.018;2023-07-31T02:25:53;1.25;;;0.98;;
39098;SDS011;24844;52.380;7.018;2023-07-31T02:28:18;0.65;;;0.60;;
39098;SDS011;24844;52.380;7.018;2023-07-31T02:30:44;0.70;;;0.70;;
39098;SDS011;24844;52.380;7.018;2023-07-31T02:33:11;0.82;;;0.80;;
39098;SDS011;24844;52.380;7.018;2023-07-31T02:35:36;2.28;;;0.80;;
39098;SDS011;24844;52.380;7.018;2023-07-31T02:38:02;1.30;;;0.80;;
39098;SDS011;24844;52.380;7.018;2023-07-31T02:40:28;5.10;;;0.90;;
39098;SDS011;24844;52.380;7.018;2023-07-31T02:42:53;2.70;;;0.82;;
39098;SDS011;24844;52.380;7.018;2023-07-31T02:45:20;1.65;;;0.98;;
39098;SDS011;24844;52.380;7.018;2023-07-31T02:47:46;1.73;;;1.00;;
39098;SDS011;24844;52.380;7.018;2023-07-31T02:50:11;5.53;;;0.75;;
39098;SDS011;24844;52.380;7.018;2023-07-31T02:52:37;0.90;;;0.90;;
39098;SDS011;24844;52.380;7.018;2023-07-31T02:55:03;1.02;;;0.80;;
39098;SDS011;24844;52.380;7.018;2023-07-31T02:57:28;0.70;;;0.70;;
39098;SDS011;24844;52.380;7.018;2023-07-31T02:59:56;1.25;;;0.88;;
39098;SDS011;24844;52.380;7.018;2023-07-31T03:02:21;1.00;;;0.80;;
39098;SDS011;24844;52.380;7.018;2023-07-31T03:04:47;1.42;;;0.70;;
39098;SDS011;24844;52.380;7.018;2023-07-31T03:07:13;2.38;;;1.10;;
39098;SDS011;24844;52.380;7.018;2023-07-31T03:09:38;3.85;;;0.88;;
39098;SDS011;24844;52.380;7.018;2023-07-31T03:12:04;1.77;;;0.82;;
39098;SDS011;24844;52.380;7.018;2023-07-31T03:14:30;2.17;;;1.08;;
39098;SDS011;24844;52.380;7.018;2023-07-31T03:16:56;1.20;;;1.02;;
39098;SDS011;24844;52.380;7.018;2023-07-31T03:19:22;3.42;;;1.40;;
39098;SDS011;24844;52.380;7.018;2023-07-31T03:21:47;2.40;;;1.52;;
39098;SDS011;24844;52.380;7.018;2023-07-31T03:24:13;5.30;;;2.20;;
39098;SDS011;24844;52.380;7.018;2023-07-31T03:26:38;3.35;;;1.67;;
39098;SDS011;24844;52.380;7.018;2023-07-31T03:29:06;3.85;;;2.05;;
39098;SDS011;24844;52.380;7.018;2023-07-31T03:31:32;2.95;;;2.13;;
39098;SDS011;24844;52.380;7.018;2023-07-31T03:33:58;3.05;;;2.40;;
39098;SDS011;24844;52.380;7.018;2023-07-31T03:36:23;5.88;;;2.67;;
39098;SDS011;24844;52.380;7.018;2023-07-31T03:38:49;3.65;;;2.05;;
39098;SDS011;24844;52.380;7.018;2023-07-31T03:41:16;3.00;;;2.25;;
39098;SDS011;24844;52.380;7.018;2023-07-31T03:43:41;3.70;;;2.53;;
39098;SDS011;24844;52.380;7.018;2023-07-31T03:46:07;8.95;;;3.22;;
39098;SDS011;24844;52.380;7.018;2023-07-31T03:48:32;5.60;;;2.70;;
39098;SDS011;24844;52.380;7.018;2023-07-31T03:50:58;7.22;;;3.00;;
39098;SDS011;24844;52.380;7.018;2023-07-31T03:53:24;6.10;;;3.17;;
39098;SDS011;24844;52.380;7.018;2023-07-31T03:55:49;5.50;;;3.00;;
39098;SDS011;24844;52.380;7.018;2023-07-31T03:58:15;4.30;;;3.03;;
39098;SDS011;24844;52.380;7.018;2023-07-31T04:00:40;5.00;;;3.05;;
39098;SDS011;24844;52.380;7.018;2023-07-31T04:03:06;5.45;;;3.03;;
39098;SDS011;24844;52.380;7.018;2023-07-31T04:05:32;6.78;;;3.40;;
39098;SDS011;24844;52.380;7.018;2023-07-31T04:07:58;6.30;;;3.58;;
39098;SDS011;24844;52.380;7.018;2023-07-31T04:10:23;6.20;;;3.53;;
39098;SDS011;24844;52.380;7.018;2023-07-31T04:12:49;8.40;;;3.35;;
39098;SDS011;24844;52.380;7.018;2023-07-31T04:15:15;7.72;;;4.03;;
39098;SDS011;24844;52.380;7.018;2023-07-31T04:17:40;9.80;;;4.90;;
39098;SDS011;24844;52.380;7.018;2023-07-31T04:20:06;19.05;;;6.50;;
39098;SDS011;24844;52.380;7.018;2023-07-31T04:22:32;16.33;;;6.00;;
39098;SDS011;24844;52.380;7.018;2023-07-31T04:24:58;17.80;;;7.28;;
39098;SDS011;24844;52.380;7.018;2023-07-31T04:27:24;22.00;;;9.13;;
39098;SDS011;24844;52.380;7.018;2023-07-31T04:29:50;21.55;;;8.65;;
39098;SDS011;24844;52.380;7.018;2023-07-31T04:32:16;14.30;;;7.18;;
39098;SDS011;24844;52.380;7.018;2023-07-31T04:34:42;24.80;;;9.43;;
39098;SDS011;24844;52.380;7.018;2023-07-31T04:37:08;25.48;;;9.13;;
39098;SDS011;24844;52.380;7.018;2023-07-31T04:39:34;29.50;;;10.68;;
39098;SDS011;24844;52.380;7.018;2023-07-31T04:41:59;36.67;;;11.75;;
39098;SDS011;24844;52.380;7.018;2023-07-31T04:44:25;25.75;;;10.68;;
39098;SDS011;24844;52.380;7.018;2023-07-31T04:46:51;21.20;;;9.52;;
39098;SDS011;24844;52.380;7.018;2023-07-31T04:49:16;31.92;;;11.65;;
39098;SDS011;24844;52.380;7.018;2023-07-31T04:51:42;37.70;;;12.27;;
39098;SDS011;24844;52.380;7.018;2023-07-31T04:54:08;35.47;;;13.07;;
39098;SDS011;24844;52.380;7.018;2023-07-31T04:56:33;47.88;;;15.38;;
39098;SDS011;24844;52.380;7.018;2023-07-31T04:58:59;40.40;;;14.35;;
39098;SDS011;24844;52.380;7.018;2023-07-31T05:01:25;44.50;;;15.00;;
39098;SDS011;24844;52.380;7.018;2023-07-31T05:03:50;41.97;;;14.73;;
39098;SDS011;24844;52.380;7.018;2023-07-31T05:06:16;37.05;;;14.65;;
39098;SDS011;24844;52.380;7.018;2023-07-31T05:08:41;43.60;;;15.45;;
39098;SDS011;24844;52.380;7.018;2023-07-31T05:11:07;34.95;;;14.43;;
39098;SDS011;24844;52.380;7.018;2023-07-31T05:13:33;40.55;;;15.77;;
39098;SDS011;24844;52.380;7.018;2023-07-31T05:15:59;43.50;;;15.18;;
39098;SDS011;24844;52.380;7.018;2023-07-31T05:18:24;29.75;;;13.75;;
39098;SDS011;24844;52.380;7.018;2023-07-31T05:20:50;29.25;;;12.52;;
39098;SDS011;24844;52.380;7.018;2023-07-31T05:23:15;29.65;;;13.02;;
39098;SDS011;24844;52.380;7.018;2023-07-31T05:25:41;30.92;;;12.75;;
39098;SDS011;24844;52.380;7.018;2023-07-31T05:28:07;41.50;;;14.68;;
39098;SDS011;24844;52.380;7.018;2023-07-31T05:30:33;42.60;;;14.82;;
39098;SDS011;24844;52.380;7.018;2023-07-31T05:32:58;36.92;;;14.25;;
39098;SDS011;24844;52.380;7.018;2023-07-31T05:35:24;34.95;;;13.05;;
39098;SDS011;24844;52.380;7.018;2023-07-31T05:37:49;31.17;;;12.25;;
39098;SDS011;24844;52.380;7.018;2023-07-31T05:40:15;37.20;;;14.00;;
39098;SDS011;24844;52.380;7.018;2023-07-31T05:42:41;38.25;;;14.90;;
39098;SDS011;24844;52.380;7.018;2023-07-31T05:45:07;37.75;;;13.40;;
39098;SDS011;24844;52.380;7.018;2023-07-31T05:47:33;36.90;;;13.15;;
39098;SDS011;24844;52.380;7.018;2023-07-31T05:49:58;31.10;;;12.13;;
39098;SDS011;24844;52.380;7.018;2023-07-31T05:52:24;40.55;;;12.98;;
39098;SDS011;24844;52.380;7.018;2023-07-31T05:54:50;32.53;;;11.65;;
39098;SDS011;24844;52.380;7.018;2023-07-31T05:57:16;34.58;;;12.48;;
39098;SDS011;24844;52.380;7.018;2023-07-31T05:59:42;27.77;;;11.88;;
39098;SDS011;24844;52.380;7.018;2023-07-31T06:02:07;26.58;;;11.10;;
39098;SDS011;24844;52.380;7.018;2023-07-31T06:04:33;30.00;;;11.30;;
39098;SDS011;24844;52.380;7.018;2023-07-31T06:06:59;27.90;;;11.73;;
39098;SDS011;24844;52.380;7.018;2023-07-31T06:09:25;30.73;;;11.32;;
39098;SDS011;24844;52.380;7.018;2023-07-31T06:11:51;28.38;;;10.77;;
39098;SDS011;24844;52.380;7.018;2023-07-31T06:14:16;26.58;;;10.05;;
39098;SDS011;24844;52.380;7.018;2023-07-31T06:16:43;34.25;;;10.73;;
39098;SDS011;24844;52.380;7.018;2023-07-31T06:19:09;26.52;;;9.55;;
39098;SDS011;24844;52.380;7.018;2023-07-31T06:21:36;33.15;;;10.75;;
39098;SDS011;24844;52.380;7.018;2023-07-31T06:24:03;30.63;;;10.82;;
39098;SDS011;24844;52.380;7.018;2023-07-31T06:26:29;26.23;;;10.90;;
39098;SDS011;24844;52.380;7.018;2023-07-31T06:28:54;27.83;;;10.50;;
39098;SDS011;24844;52.380;7.018;2023-07-31T06:31:20;27.40;;;10.35;;
39098;SDS011;24844;52.380;7.018;2023-07-31T06:33:48;28.48;;;9.93;;
39098;SDS011;24844;52.380;7.018;2023-07-31T06:36:14;30.30;;;10.07;;
39098;SDS011;24844;52.380;7.018;2023-07-31T06:38:40;21.52;;;9.85;;
39098;SDS011;24844;52.380;7.018;2023-07-31T06:41:06;27.02;;;10.38;;
39098;SDS011;24844;52.380;7.018;2023-07-31T06:43:31;30.92;;;10.68;;
39098;SDS011;24844;52.380;7.018;2023-07-31T06:45:57;24.85;;;9.52;;
39098;SDS011;24844;52.380;7.018;2023-07-31T06:48:23;29.27;;;10.57;;
39098;SDS011;24844;52.380;7.018;2023-07-31T06:50:48;26.40;;;10.57;;
39098;SDS011;24844;52.380;7.018;2023-07-31T06:53:14;23.55;;;8.40;;
39098;SDS011;24844;52.380;7.018;2023-07-31T06:55:40;24.85;;;9.15;;
39098;SDS011;24844;52.380;7.018;2023-07-31T06:58:07;25.55;;;9.30;;
39098;SDS011;24844;52.380;7.018;2023-07-31T07:00:32;20.40;;;8.50;;
39098;SDS011;24844;52.380;7.018;2023-07-31T07:02:58;22.35;;;9.02;;
39098;SDS011;24844;52.380;7.018;2023-07-31T07:05:24;23.80;;;9.10;;
39098;SDS011;24844;52.380;7.018;2023-07-31T07:07:50;23.60;;;8.77;;
39098;SDS011;24844;52.380;7.018;2023-07-31T07:10:17;18.67;;;8.05;;
39098;SDS011;24844;52.380;7.018;2023-07-31T07:12:42;13.95;;;7.15;;
39098;SDS011;24844;52.380;7.018;2023-07-31T07:15:08;18.27;;;8.65;;
39098;SDS011;24844;52.380;7.018;2023-07-31T07:17:34;16.45;;;7.72;;
39098;SDS011;24844;52.380;7.018;2023-07-31T07:20:00;17.30;;;7.72;;
39098;SDS011;24844;52.380;7.018;2023-07-31T07:22:26;19.27;;;7.65;;
39098;SDS011;24844;52.380;7.018;2023-07-31T07:24:52;15.63;;;7.53;;
39098;SDS011;24844;52.380;7.018;2023-07-31T07:27:18;17.20;;;7.40;;
39098;SDS011;24844;52.380;7.018;2023-07-31T07:29:43;13.70;;;7.18;;
39098;SDS011;24844;52.380;7.018;2023-07-31T07:32:10;16.23;;;6.95;;
39098;SDS011;24844;52.380;7.018;2023-07-31T07:34:37;13.88;;;6.38;;
39098;SDS011;24844;52.380;7.018;2023-07-31T07:37:02;13.60;;;6.07;;
39098;SDS011;24844;52.380;7.018;2023-07-31T07:39:28;19.48;;;6.60;;
39098;SDS011;24844;52.380;7.018;2023-07-31T07:41:54;14.30;;;6.60;;
39098;SDS011;24844;52.380;7.018;2023-07-31T07:44:19;14.85;;;5.05;;
39098;SDS011;24844;52.380;7.018;2023-07-31T07:46:45;8.77;;;5.28;;
39098;SDS011;24844;52.380;7.018;2023-07-31T07:49:11;10.82;;;4.88;;
39098;SDS011;24844;52.380;7.018;2023-07-31T07:51:36;10.80;;;4.90;;
39098;SDS011;24844;52.380;7.018;2023-07-31T07:54:02;11.00;;;4.82;;
39098;SDS011;24844;52.380;7.018;2023-07-31T07:56:28;7.90;;;4.57;;
39098;SDS011;24844;52.380;7.018;2023-07-31T07:58:54;8.38;;;4.50;;
39098;SDS011;24844;52.380;7.018;2023-07-31T08:01:20;11.60;;;5.00;;
39098;SDS011;24844;52.380;7.018;2023-07-31T08:03:46;12.90;;;6.43;;
39098;SDS011;24844;52.380;7.018;2023-07-31T08:06:12;9.88;;;4.57;;
39098;SDS011;24844;52.380;7.018;2023-07-31T08:08:38;10.98;;;4.22;;
39098;SDS011;24844;52.380;7.018;2023-07-31T08:11:04;7.80;;;4.10;;
39098;SDS011;24844;52.380;7.018;2023-07-31T08:13:29;10.13;;;4.97;;
39098;SDS011;24844;52.380;7.018;2023-07-31T08:15:55;6.78;;;4.15;;
39098;SDS011;24844;52.380;7.018;2023-07-31T08:18:21;6.82;;;3.85;;
39098;SDS011;24844;52.380;7.018;2023-07-31T08:20:46;6.20;;;2.92;;
39098;SDS011;24844;52.380;7.018;2023-07-31T08:23:12;7.32;;;3.30;;
39098;SDS011;24844;52.380;7.018;2023-07-31T08:25:38;5.25;;;2.90;;
39098;SDS011;24844;52.380;7.018;2023-07-31T08:28:04;5.85;;;3.45;;
39098;SDS011;24844;52.380;7.018;2023-07-31T08:30:30;4.90;;;2.75;;
39098;SDS011;24844;52.380;7.018;2023-07-31T08:32:56;4.38;;;2.53;;
39098;SDS011;24844;52.380;7.018;2023-07-31T08:35:22;4.10;;;2.50;;
39098;SDS011;24844;52.380;7.018;2023-07-31T08:37:49;3.25;;;2.33;;
39098;SDS011;24844;52.380;7.018;2023-07-31T08:40:15;3.83;;;2.60;;
39098;SDS011;24844;52.380;7.018;2023-07-31T08:42:47;4.13;;;2.53;;
39098;SDS011;24844;52.380;7.018;2023-07-31T08:45:14;4.40;;;2.13;;
39098;SDS011;24844;52.380;7.018;2023-07-31T08:47:44;3.28;;;2.10;;
39098;SDS011;24844;52.380;7.018;2023-07-31T08:50:14;2.13;;;1.77;;
39098;SDS011;24844;52.380;7.018;2023-07-31T08:52:41;2.78;;;2.40;;
39098;SDS011;24844;52.380;7.018;2023-07-31T08:55:08;2.45;;;2.15;;
39098;SDS011;24844;52.380;7.018;2023-07-31T08:57:35;2.80;;;2.45;;
39098;SDS011;24844;52.380;7.018;2023-07-31T09:00:02;4.00;;;3.70;;
39098;SDS011;24844;52.380;7.018;2023-07-31T09:02:37;1.98;;;1.48;;
39098;SDS011;24844;52.380;7.018;2023-07-31T09:05:10;2.75;;;2.00;;
39098;SDS011;24844;52.380;7.018;2023-07-31T09:07:37;3.67;;;1.73;;
39098;SDS011;24844;52.380;7.018;2023-07-31T09:10:03;4.07;;;1.83;;
39098;SDS011;24844;52.380;7.018;2023-07-31T09:12:30;3.25;;;2.95;;
39098;SDS011;24844;52.380;7.018;2023-07-31T09:14:56;2.97;;;1.40;;
39098;SDS011;24844;52.380;7.018;2023-07-31T09:17:29;1.98;;;1.88;;
39098;SDS011;24844;52.380;7.018;2023-07-31T09:20:16;1.92;;;1.25;;
39098;SDS011;24844;52.380;7.018;2023-07-31T09:22:43;1.92;;;1.48;;
39098;SDS011;24844;52.380;7.018;2023-07-31T09:25:19;2.30;;;2.08;;
39098;SDS011;24844;52.380;7.018;2023-07-31T09:27:50;1.67;;;1.58;;
39098;SDS011;24844;52.380;7.018;2023-07-31T09:30:18;1.60;;;1.45;;
39098;SDS011;24844;52.380;7.018;2023-07-31T09:32:44;2.05;;;1.73;;
39098;SDS011;24844;52.380;7.018;2023-07-31T09:35:18;3.88;;;1.02;;
39098;SDS011;24844;52.380;7.018;2023-07-31T09:37:52;2.28;;;1.92;;
39098;SDS011;24844;52.380;7.018;2023-07-31T09:40:52;0.90;;;0.90;;
39098;SDS011;24844;52.380;7.018;2023-07-31T09:43:13;1.92;;;1.83;;
39098;SDS011;24844;52.380;7.018;2023-07-31T09:45:43;1.70;;;1.60;;
39098;SDS011;24844;52.380;7.018;2023-07-31T09:50:37;1.67;;;1.58;;
39098;SDS011;24844;52.380;7.018;2023-07-31T09:53:04;1.67;;;1.58;;
39098;SDS011;24844;52.380;7.018;2023-07-31T09:55:30;1.70;;;1.10;;
39098;SDS011;24844;52.380;7.018;2023-07-31T10:00:27;1.00;;;0.75;;
39098;SDS011;24844;52.380;7.018;2023-07-31T10:02:54;1.10;;;1.00;;
39098;SDS011;24844;52.380;7.018;2023-07-31T10:05:26;1.42;;;1.33;;
39098;SDS011;24844;52.380;7.018;2023-07-31T10:07:58;1.48;;;0.80;;
39098;SDS011;24844;52.380;7.018;2023-07-31T10:10:25;1.40;;;1.23;;
39098;SDS011;24844;52.380;7.018;2023-07-31T10:12:52;1.50;;;1.40;;
39098;SDS011;24844;52.380;7.018;2023-07-31T10:15:18;6.47;;;0.88;;
39098;SDS011;24844;52.380;7.018;2023-07-31T10:17:48;3.33;;;3.13;;
39098;SDS011;24844;52.380;7.018;2023-07-31T10:20:15;1.70;;;1.50;;
39098;SDS011;24844;52.380;7.018;2023-07-31T10:22:41;1.45;;;0.80;;
39098;SDS011;24844;52.380;7.018;2023-07-31T10:25:11;2.40;;;1.98;;
39098;SDS011;24844;52.380;7.018;2023-07-31T10:27:38;1.75;;;1.35;;
39098;SDS011;24844;52.380;7.018;2023-07-31T10:30:05;2.95;;;1.48;;
39098;SDS011;24844;52.380;7.018;2023-07-31T10:32:33;1.65;;;1.55;;
39098;SDS011;24844;52.380;7.018;2023-07-31T10:35:00;2.85;;;2.42;;
39098;SDS011;24844;52.380;7.018;2023-07-31T10:37:29;3.45;;;2.35;;
39098;SDS011;24844;52.380;7.018;2023-07-31T10:40:02;1.42;;;1.27;;
39098;SDS011;24844;52.380;7.018;2023-07-31T10:45:02;5.32;;;4.70;;
39098;SDS011;24844;52.380;7.018;2023-07-31T10:47:39;3.15;;;2.85;;
39098;SDS011;24844;52.380;7.018;2023-07-31T10:50:19;1.73;;;1.63;;
39098;SDS011;24844;52.380;7.018;2023-07-31T10:52:50;4.82;;;4.53;;
39098;SDS011;24844;52.380;7.018;2023-07-31T10:55:24;4.72;;;4.30;;
39098;SDS011;24844;52.380;7.018;2023-07-31T10:57:50;3.60;;;3.30;;
39098;SDS011;24844;52.380;7.018;2023-07-31T11:00:18;1.95;;;1.80;;
39098;SDS011;24844;52.380;7.018;2023-07-31T11:03:01;7.65;;;1.75;;
39098;SDS011;24844;52.380;7.018;2023-07-31T11:05:45;3.35;;;3.05;;
39098;SDS011;24844;52.380;7.018;2023-07-31T11:10:58;2.50;;;1.92;;
39098;SDS011;24844;52.380;7.018;2023-07-31T11:13:31;2.55;;;2.08;;
39098;SDS011;24844;52.380;7.018;2023-07-31T11:15:59;2.85;;;2.60;;
39098;SDS011;24844;52.380;7.018;2023-07-31T11:18:26;7.53;;;6.93;;
39098;SDS011;24844;52.380;7.018;2023-07-31T11:20:52;3.67;;;3.17;;
39098;SDS011;24844;52.380;7.018;2023-07-31T11:23:19;2.92;;;2.47;;
39098;SDS011;24844;52.380;7.018;2023-07-31T11:25:45;2.90;;;2.70;;
39098;SDS011;24844;52.380;7.018;2023-07-31T11:28:11;3.95;;;3.65;;
39098;SDS011;24844;52.380;7.018;2023-07-31T11:30:39;11.82;;;10.73;;
39098;SDS011;24844;52.380;7.018;2023-07-31T11:33:06;6.97;;;6.40;;
39098;SDS011;24844;52.380;7.018;2023-07-31T11:35:40;9.05;;;8.27;;
39098;SDS011;24844;52.380;7.018;2023-07-31T11:38:11;3.90;;;3.10;;
39098;SDS011;24844;52.380;7.018;2023-07-31T11:40:44;6.75;;;5.80;;
39098;SDS011;24844;52.380;7.018;2023-07-31T11:43:10;7.30;;;6.70;;
39098;SDS011;24844;52.380;7.018;2023-07-31T11:45:42;6.65;;;6.05;;
39098;SDS011;24844;52.380;7.018;2023-07-31T11:48:21;3.95;;;3.35;;
39098;SDS011;24844;52.380;7.018;2023-07-31T11:50:51;4.55;;;4.15;;
39098;SDS011;24844;52.380;7.018;2023-07-31T11:53:19;5.75;;;5.20;;
39098;SDS011;24844;52.380;7.018;2023-07-31T11:55:50;5.10;;;4.28;;
39098;SDS011;24844;52.380;7.018;2023-07-31T11:58:16;5.75;;;5.20;;
39098;SDS011;24844;52.380;7.018;2023-07-31T12:03:10;5.70;;;5.13;;
39098;SDS011;24844;52.380;7.018;2023-07-31T12:05:37;5.72;;;5.18;;
39098;SDS011;24844;52.380;7.018;2023-07-31T12:08:08;6.05;;;5.28;;
39098;SDS011;24844;52.380;7.018;2023-07-31T12:10:38;8.00;;;5.10;;
39098;SDS011;24844;52.380;7.018;2023-07-31T12:13:14;7.55;;;5.25;;
39098;SDS011;24844;52.380;7.018;2023-07-31T12:15:46;6.20;;;4.78;;
39098;SDS011;24844;52.380;7.018;2023-07-31T12:18:13;7.28;;;6.03;;
39098;SDS011;24844;52.380;7.018;2023-07-31T12:20:43;8.32;;;4.85;;
39098;SDS011;24844;52.380;7.018;2023-07-31T12:25:43;6.47;;;5.40;;
39098;SDS011;24844;52.380;7.018;2023-07-31T12:28:09;7.68;;;5.50;;
39098;SDS011;24844;52.380;7.018;2023-07-31T12:30:38;9.13;;;5.30;;
39098;SDS011;24844;52.380;7.018;2023-07-31T12:33:15;10.55;;;7.85;;
39098;SDS011;24844;52.380;7.018;2023-07-31T12:35:42;8.30;;;5.15;;
39098;SDS011;24844;52.380;7.018;2023-07-31T12:40:37;7.05;;;5.55;;
39098;SDS011;24844;52.380;7.018;2023-07-31T12:43:04;5.97;;;4.80;;
39098;SDS011;24844;52.380;7.018;2023-07-31T12:45:30;7.97;;;4.82;;
39098;SDS011;24844;52.380;7.018;2023-07-31T12:47:56;7.53;;;6.18;;
39098;SDS011;24844;52.380;7.018;2023-07-31T12:50:23;5.82;;;4.25;;
39098;SDS011;24844;52.380;7.018;2023-07-31T12:52:49;6.47;;;5.82;;
39098;SDS011;24844;52.380;7.018;2023-07-31T12:55:14;7.55;;;4.28;;
39098;SDS011;24844;52.380;7.018;2023-07-31T12:57:40;6.70;;;3.95;;
39098;SDS011;24844;52.380;7.018;2023-07-31T13:00:07;10.23;;;5.75;;
39098;SDS011;24844;52.380;7.018;2023-07-31T13:02:33;5.75;;;4.78;;
39098;SDS011;24844;52.380;7.018;2023-07-31T13:04:59;6.65;;;3.80;;
39098;SDS011;24844;52.380;7.018;2023-07-31T13:07:24;4.93;;;3.92;;
39098;SDS011;24844;52.380;7.018;2023-07-31T13:09:50;8.30;;;6.53;;
39098;SDS011;24844;52.380;7.018;2023-07-31T13:12:16;7.38;;;6.43;;
39098;SDS011;24844;52.380;7.018;2023-07-31T13:14:44;6.85;;;4.88;;
39098;SDS011;24844;52.380;7.018;2023-07-31T13:17:10;6.13;;;4.63;;
39098;SDS011;24844;52.380;7.018;2023-07-31T13:19:35;6.10;;;5.10;;
39098;SDS011;24844;52.380;7.018;2023-07-31T13:22:01;17.33;;;16.00;;
39098;SDS011;24844;52.380;7.018;2023-07-31T13:24:27;6.80;;;5.18;;
39098;SDS011;24844;52.380;7.018;2023-07-31T13:26:52;7.88;;;4.78;;
39098;SDS011;24844;52.380;7.018;2023-07-31T13:29:18;7.15;;;4.60;;
39098;SDS011;24844;52.380;7.018;2023-07-31T13:31:44;6.07;;;5.05;;
39098;SDS011;24844;52.380;7.018;2023-07-31T13:34:09;6.53;;;5.63;;
39098;SDS011;24844;52.380;7.018;2023-07-31T13:36:36;7.15;;;6.30;;
39098;SDS011;24844;52.380;7.018;2023-07-31T13:39:02;6.82;;;4.53;;
39098;SDS011;24844;52.380;7.018;2023-07-31T13:41:28;8.18;;;5.20;;
39098;SDS011;24844;52.380;7.018;2023-07-31T13:43:53;11.35;;;9.88;;
39098;SDS011;24844;52.380;7.018;2023-07-31T13:46:19;8.43;;;5.95;;
39098;SDS011;24844;52.380;7.018;2023-07-31T13:48:45;9.32;;;8.25;;
39098;SDS011;24844;52.380;7.018;2023-07-31T13:51:10;7.70;;;5.15;;
39098;SDS011;24844;52.380;7.018;2023-07-31T13:53:36;7.90;;;6.45;;
39098;SDS011;24844;52.380;7.018;2023-07-31T13:56:01;6.22;;;4.57;;
39098;SDS011;24844;52.380;7.018;2023-07-31T13:58:27;8.20;;;7.40;;
39098;SDS011;24844;52.380;7.018;2023-07-31T14:00:53;7.53;;;4.70;;
39098;SDS011;24844;52.380;7.018;2023-07-31T14:03:19;8.88;;;5.13;;
39098;SDS011;24844;52.380;7.018;2023-07-31T14:05:44;9.80;;;5.18;;
39098;SDS011;24844;52.380;7.018;2023-07-31T14:08:11;6.97;;;4.50;;
39098;SDS011;24844;52.380;7.018;2023-07-31T14:10:36;10.65;;;5.40;;
39098;SDS011;24844;52.380;7.018;2023-07-31T14:13:02;6.18;;;5.45;;
39098;SDS011;24844;52.380;7.018;2023-07-31T14:15:33;7.73;;;4.70;;
39098;SDS011;24844;52.380;7.018;2023-07-31T14:18:07;6.55;;;5.53;;
39098;SDS011;24844;52.380;7.018;2023-07-31T14:20:33;9.77;;;8.07;;
39098;SDS011;24844;52.380;7.018;2023-07-31T14:23:00;6.00;;;5.35;;
39098;SDS011;24844;52.380;7.018;2023-07-31T14:25:26;5.20;;;4.18;;
39098;SDS011;24844;52.380;7.018;2023-07-31T14:27:52;8.32;;;7.05;;
39098;SDS011;24844;52.380;7.018;2023-07-31T14:32:46;6.55;;;4.18;;
39098;SDS011;24844;52.380;7.018;2023-07-31T14:35:12;6.18;;;4.78;;
39098;SDS011;24844;52.380;7.018;2023-07-31T14:37:42;5.85;;;5.03;;
39098;SDS011;24844;52.380;7.018;2023-07-31T14:40:12;5.97;;;4.07;;
39098;SDS011;24844;52.380;7.018;2023-07-31T14:42:39;4.80;;;3.65;;
39098;SDS011;24844;52.380;7.018;2023-07-31T14:45:05;5.88;;;3.85;;
39098;SDS011;24844;52.380;7.018;2023-07-31T14:47:31;7.18;;;4.25;;
39098;SDS011;24844;52.380;7.018;2023-07-31T14:50:00;8.20;;;4.75;;
39098;SDS011;24844;52.380;7.018;2023-07-31T14:52:26;5.18;;;4.25;;
39098;SDS011;24844;52.380;7.018;2023-07-31T14:54:52;6.07;;;4.63;;
39098;SDS011;24844;52.380;7.018;2023-07-31T14:57:18;5.70;;;3.90;;
39098;SDS011;24844;52.380;7.018;2023-07-31T14:59:45;7.70;;;6.43;;
39098;SDS011;24844;52.380;7.018;2023-07-31T15:02:11;11.00;;;9.93;;
39098;SDS011;24844;52.380;7.018;2023-07-31T15:04:37;8.05;;;7.35;;
39098;SDS011;24844;52.380;7.018;2023-07-31T15:07:03;11.15;;;10.10;;
39098;SDS011;24844;52.380;7.018;2023-07-31T15:12:36;5.63;;;4.90;;